WetterOnline ( https://www.wetteronline.de )

Wetter aktuell Grevesmühlen

Aktuelles Wetter: Boltenhagen (17m)

6-stündlich | Neueste Meldungen
Ortszeit Temperatur Wetter
So, 29.05. 14:00 13.4° C bewölkt
So, 29.05. 8:00 11.2° C leicht bewölkt
So, 29.05. 2:00 9.8° C bewölkt
Sa, 28.05. 20:00 12.2° C bewölkt
Sa, 28.05. 14:00 14.0° C wolkig
Sa, 28.05. 8:00 10.2° C bewölkt
Sa, 28.05. 2:00 8.4° C leichter Regen
Fr, 27.05. 20:00 9.6° C bewölkt
Ortszeit Temperatur Wetter
So, 29.05. 14:30 13.8° C wolkig
So, 29.05. 14:20 13.8° C wolkig
So, 29.05. 14:10 14.1° C bewölkt
So, 29.05. 14:00 13.4° C bewölkt
So, 29.05. 13:50 13.4° C bewölkt
So, 29.05. 13:40 13.4° C wolkig
So, 29.05. 13:30 13.7° C wolkig
So, 29.05. 13:00 13.4° C wolkig
So, 29.05. 12:30 14.3° C wolkig
So, 29.05. 12:00 12.9° C bewölkt
So, 29.05. 11:30 13.6° C bewölkt
Ortszeit Relative Feuchte Sichtweite
So, 29.05. 14:00 67% 40 km
So, 29.05. 8:00 81% 20 km
So, 29.05. 2:00 90% 23 km
Sa, 28.05. 20:00 73% 65 km
Sa, 28.05. 14:00 67% 45 km
Sa, 28.05. 8:00 80% 45 km
Sa, 28.05. 2:00 87% 14 km
Fr, 27.05. 20:00 84% 50 km
Ortszeit Relative Feuchte Sichtweite
So, 29.05. 14:30 64% 35 km
So, 29.05. 14:20 64% -
So, 29.05. 14:10 65% -
So, 29.05. 14:00 67% 40 km
So, 29.05. 13:50 67% -
So, 29.05. 13:40 69% -
So, 29.05. 13:30 67% 30 km
So, 29.05. 13:00 62% 45 km
So, 29.05. 12:30 64% 40 km
So, 29.05. 12:00 66% 40 km
So, 29.05. 11:30 64% 29 km
Ortszeit Niederschlagsmenge Niederschlagsart
So, 29.05. 14:00 0.0 l/m2 in 6 Std. -
So, 29.05. 8:00 0.1 l/m2 in 12 Std. -
So, 29.05. 2:00 0.1 l/m2 in 6 Std. Sprühregen
Sa, 28.05. 20:00 0.1 l/m2 in 12 Std. Regen
Sa, 28.05. 14:00 0.1 l/m2 in 6 Std. Regen
Sa, 28.05. 8:00 0.3 l/m2 in 12 Std. Regen
Sa, 28.05. 2:00 0.2 l/m2 in 6 Std. Regen
Fr, 27.05. 20:00 6 l/m2 in 12 Std. Regen
Ortszeit Niederschlagsmenge Niederschlagsart
So, 29.05. 14:30 0.0 l/m2 in 1 Std. -
So, 29.05. 14:20 keine Meldung -
So, 29.05. 14:10 keine Meldung -
So, 29.05. 14:00 0.0 l/m2 in 1 Std. -
So, 29.05. 13:50 keine Meldung -
So, 29.05. 13:40 keine Meldung -
So, 29.05. 13:30 0.0 l/m2 in 1 Std. -
So, 29.05. 13:00 0.0 l/m2 in 1 Std. -
So, 29.05. 12:30 0.0 l/m2 in 1 Std. -
So, 29.05. 12:00 0.0 l/m2 in 1 Std. -
So, 29.05. 11:30 0.0 l/m2 in 1 Std. -
Ortszeit Stärke Spitze Richtung
km/h Bft. km/h Grad Sektor
So, 29.05. 14:00 7 2 22 60° NO
So, 29.05. 8:00 13 3 22 240° SW
So, 29.05. 2:00 14 3 43 260° W
Sa, 28.05. 20:00 29 5 50 260° W
Sa, 28.05. 14:00 31 5 54 270° W
Sa, 28.05. 8:00 33 5 54 270° W
Sa, 28.05. 2:00 28 4 52 250° W
Fr, 27.05. 20:00 33 5 67 260° W
Ortszeit Stärke Spitze Richtung
km/h Bft. km/h Grad Sektor
So, 29.05. 14:30 7 2 11 80° O
So, 29.05. 14:20 7 2 - 80° O
So, 29.05. 14:10 6 1 - 50° NO
So, 29.05. 14:00 7 2 14 60° NO
So, 29.05. 13:50 7 2 - 60° NO
So, 29.05. 13:40 9 2 - 60° NO
So, 29.05. 13:30 7 2 14 40° NO
So, 29.05. 13:00 11 2 14 40° NO
So, 29.05. 12:30 7 2 14 250° W
So, 29.05. 12:00 11 2 14 310° NW
So, 29.05. 11:30 7 2 14 270° W
Ortszeit Untergrenze Bedeckung Gattung
total tief tief mittel hoch
So, 29.05. 14:00 1230 m 7/8 6/8 - - -
So, 29.05. 8:00 270 m 2/8 2/8 - - -
So, 29.05. 2:00 600 m 7/8 7/8 - - -
Sa, 28.05. 20:00 870 m 8/8 7/8 - - -
Sa, 28.05. 14:00 1350 m 5/8 5/8 - - -
Sa, 28.05. 8:00 780 m 8/8 7/8 - - -
Sa, 28.05. 2:00 870 m 7/8 3/8 - - -
Fr, 27.05. 20:00 1290 m 8/8 7/8 - - -
Ortszeit Bedeckungsgrad in Achtel und Wolkenuntergrenze
So, 29.05. 14:30 3(1290m) 3(1500m) 7(4500m)
So, 29.05. 14:20 3(1290m) 3(1500m) 7(4500m)
So, 29.05. 14:10 7
So, 29.05. 14:00 6(1230m) 7(4800m)
So, 29.05. 13:50 6(1230m) 7(4800m)
So, 29.05. 13:40 6
So, 29.05. 13:30 3(840m) 6(3600m) 6(5100m)
So, 29.05. 13:00 4(810m) 7(3900m) 7(5100m)
So, 29.05. 12:30 2(750m) 5(1320m) 7(3900m)
So, 29.05. 12:00 5(810m) 6(1110m) 7(3900m)
So, 29.05. 11:30 3(960m) 7(1170m) 8(3900m)
Ortszeit Luftdruck NN (hPa) Tendenz (hPa in 3 Std.)
So, 29.05. 14:00 1010 - 0,3
So, 29.05. 8:00 1010 - 0,4
So, 29.05. 2:00 1012 - 0,8
Sa, 28.05. 20:00 1013 0,0
Sa, 28.05. 14:00 1012 + 0,4
Sa, 28.05. 8:00 1011 + 0,5
Sa, 28.05. 2:00 1011 - 1,3
Fr, 27.05. 20:00 1013 - 0,7
Ortszeit Luftdruck NN (hPa) Tendenz (hPa in 3 Std.)
So, 29.05. 14:30 1010 - 0,6
So, 29.05. 14:20 1010 keine Meldung
So, 29.05. 14:10 1010 keine Meldung
So, 29.05. 14:00 1010 - 0,3
So, 29.05. 13:50 1010 keine Meldung
So, 29.05. 13:40 1010 keine Meldung
So, 29.05. 13:30 1010 - 0,3
So, 29.05. 13:00 1010 - 0,2
So, 29.05. 12:30 1011 0,0
So, 29.05. 12:00 1011 0,0
So, 29.05. 11:30 1011 + 0,1
Ortszeit Schneehöhe (cm)
So, 29.05. 14:00 0
So, 29.05. 8:00 0
So, 29.05. 2:00 0
Sa, 28.05. 20:00 0
Sa, 28.05. 14:00 0
Sa, 28.05. 8:00 0
Sa, 28.05. 2:00 0
Fr, 27.05. 20:00 0
Ortszeit Schneehöhe (cm)
So, 29.05. 14:30 0
So, 29.05. 14:20 0
So, 29.05. 14:10 0
So, 29.05. 14:00 0
So, 29.05. 13:50 0
So, 29.05. 13:40 0
So, 29.05. 13:30 0
So, 29.05. 13:00 0
So, 29.05. 12:30 0
So, 29.05. 12:00 0
So, 29.05. 11:30 0
Link zu dieser Seite / Seite empfehlen

Das Wetter in ...